Time;durP1;ratioP1;P1;durP2;ratioP2;P2;SDS_P1;SDS_P2;PMS_P1;PMS_P2;Temp;Humidity;BMP_temperature;BMP_pressure;BME280_temperature;BME280_humidity;BME280_pressure;Samples;Min_cycle;Max_cycle;Signal;HPM_P1;HPM_P2
2023/01/13 00:01:59;;;;;;;34.05;7.93;;;8.80;99.90;;;;;;6156498;23;20033;-82
2023/01/13 00:04:25;;;;;;;37.67;8.23;;;8.50;99.90;;;;;;6158303;23;20189;-82
2023/01/13 00:06:51;;;;;;;41.60;7.22;;;8.40;99.90;;;;;;6158005;23;20124;-82
2023/01/13 00:09:16;;;;;;;37.22;8.43;;;8.90;99.90;;;;;;6157007;23;20024;-82
2023/01/13 00:11:42;;;;;;;38.03;7.40;;;8.40;99.90;;;;;;6131385;23;20441;-84
2023/01/13 00:14:08;;;;;;;46.17;7.43;;;8.40;99.90;;;;;;6157481;23;20077;-82
2023/01/13 00:16:33;;;;;;;32.70;7.30;;;8.70;99.90;;;;;;6156588;23;20337;-82
2023/01/13 00:18:59;;;;;;;35.25;7.63;;;8.30;99.90;;;;;;6135355;23;20013;-82
2023/01/13 00:21:25;;;;;;;42.50;8.27;;;8.30;99.90;;;;;;6157657;23;20014;-83
2023/01/13 00:23:52;;;;;;;36.88;7.65;;;8.40;99.90;;;;;;6157464;23;20014;-83
2023/01/13 00:26:23;;;;;;;44.17;8.30;;;8.50;99.90;;;;;;6155655;23;20026;-83
2023/01/13 00:28:49;;;;;;;37.38;8.25;;;8.20;99.90;;;;;;6157455;23;20009;-82
2023/01/13 00:31:18;;;;;;;42.53;8.25;;;8.30;99.90;;;;;;6155444;23;20054;-82
2023/01/13 00:33:43;;;;;;;43.72;8.52;;;8.10;99.90;;;;;;6155584;23;20467;-82
2023/01/13 00:36:12;;;;;;;49.55;8.55;;;8.00;99.90;;;;;;6154905;23;20045;-83
2023/01/13 00:38:38;;;;;;;43.67;9.23;;;8.00;99.90;;;;;;6155938;23;20156;-82
2023/01/13 00:41:10;;;;;;;39.20;7.97;;;8.00;99.90;;;;;;6155230;23;20376;-82
2023/01/13 00:43:36;;;;;;;46.78;8.80;;;7.90;99.90;;;;;;6158034;23;20013;-82
2023/01/13 00:46:04;;;;;;;48.50;8.38;;;8.40;99.90;;;;;;6131310;23;20049;-82
2023/01/13 00:48:30;;;;;;;43.58;8.32;;;7.70;99.90;;;;;;6157975;23;20025;-82
2023/01/13 00:50:58;;;;;;;39.28;9.07;;;8.20;99.90;;;;;;6155195;23;20022;-82
2023/01/13 00:53:24;;;;;;;49.00;8.52;;;7.80;99.90;;;;;;6158294;23;20013;-81
2023/01/13 00:56:04;;;;;;;43.22;8.93;;;7.80;99.90;;;;;;6156637;23;20013;-83
2023/01/13 00:58:33;;;;;;;47.25;8.88;;;7.80;99.90;;;;;;6156012;23;20017;-83
2023/01/13 01:01:10;;;;;;;39.05;8.70;;;7.90;99.90;;;;;;6155049;23;20499;-82
2023/01/13 01:03:36;;;;;;;51.97;9.27;;;7.80;99.90;;;;;;6155584;23;20445;-83
2023/01/13 01:06:13;;;;;;;46.20;9.13;;;7.70;99.90;;;;;;6155154;23;20018;-82
2023/01/13 01:08:39;;;;;;;44.72;9.13;;;7.70;99.90;;;;;;6158182;23;20024;-83
2023/01/13 01:11:11;;;;;;;49.95;9.38;;;7.70;99.90;;;;;;6156227;23;20018;-82
2023/01/13 01:13:37;;;;;;;45.17;10.32;;;7.70;99.90;;;;;;6155972;23;20025;-82
2023/01/13 01:16:08;;;;;;;44.42;9.43;;;7.70;99.90;;;;;;6155249;23;20023;-83
2023/01/13 01:18:36;;;;;;;58.25;9.88;;;7.60;99.90;;;;;;6153149;23;20441;-83
2023/01/13 01:21:02;;;;;;;47.85;9.90;;;7.70;99.90;;;;;;6155698;23;20106;-82
2023/01/13 01:23:28;;;;;;;56.25;10.60;;;7.50;99.90;;;;;;6153848;23;20101;-83
2023/01/13 01:25:59;;;;;;;56.22;9.48;;;7.50;99.90;;;;;;6155413;23;20025;-82
2023/01/13 01:28:24;;;;;;;46.28;10.25;;;7.50;99.90;;;;;;6155337;23;20013;-83
2023/01/13 01:30:50;;;;;;;39.83;8.77;;;7.60;99.90;;;;;;6153798;23;20088;-82
2023/01/13 01:33:16;;;;;;;55.78;10.98;;;7.50;99.90;;;;;;6153174;23;20017;-83
2023/01/13 01:35:41;;;;;;;48.78;9.48;;;7.50;99.90;;;;;;6155036;23;20014;-84
2023/01/13 01:38:07;;;;;;;48.03;9.32;;;7.50;99.90;;;;;;6129857;23;20271;-83
2023/01/13 01:40:33;;;;;;;46.78;9.70;;;7.50;99.90;;;;;;6156207;23;20084;-83
2023/01/13 01:45:43;;;;;;;49.85;9.30;;;7.40;99.90;;;;;;6153774;23;20145;-83
2023/01/13 01:48:09;;;;;;;48.65;9.85;;;7.40;99.90;;;;;;6153055;23;20049;-81
2023/01/13 01:50:35;;;;;;;49.72;8.95;;;8.10;99.90;;;;;;6153141;23;20050;-83
2023/01/13 01:53:13;;;;;;;50.67;10.00;;;7.40;99.90;;;;;;6153743;23;20441;-82
2023/01/13 01:55:39;;;;;;;45.60;9.32;;;7.40;99.90;;;;;;6153928;23;20052;-83
2023/01/13 01:58:27;;;;;;;47.53;8.68;;;7.40;99.90;;;;;;6129984;23;20013;-83
2023/01/13 02:00:53;;;;;;;41.80;8.32;;;7.40;99.90;;;;;;6153723;23;20087;-83
2023/01/13 02:03:19;;;;;;;49.67;9.02;;;7.60;99.90;;;;;;6153262;23;20359;-83
2023/01/13 02:05:45;;;;;;;40.10;8.52;;;7.80;99.90;;;;;;6129255;23;20014;-83
2023/01/13 02:08:12;;;;;;;43.80;8.60;;;7.50;99.90;;;;;;6153278;23;20017;-82
2023/01/13 02:10:40;;;;;;;50.45;8.85;;;7.30;99.90;;;;;;6154320;23;20499;-83
2023/01/13 02:13:09;;;;;;;45.90;8.77;;;7.30;99.90;;;;;;6153720;23;20014;-83
2023/01/13 02:15:45;;;;;;;46.13;9.48;;;7.10;99.90;;;;;;6153951;23;20345;-83
2023/01/13 02:18:34;;;;;;;46.58;9.30;;;7.30;99.90;;;;;;6152776;23;20013;-83
2023/01/13 02:21:24;;;;;;;41.20;8.13;;;7.30;99.90;;;;;;6128752;23;20392;-82
2023/01/13 02:27:10;;;;;;;35.75;8.25;;;7.40;99.90;;;;;;6153430;23;20053;-82
2023/01/13 02:32:50;;;;;;;40.92;8.60;;;7.50;99.90;;;;;;6152839;23;20025;-82
2023/01/13 02:35:28;;;;;;;40.95;8.45;;;7.50;99.90;;;;;;6153601;23;20048;-82
2023/01/13 02:37:55;;;;;;;41.15;8.75;;;7.60;99.90;;;;;;6152997;23;20024;-83
2023/01/13 02:40:45;;;;;;;41.22;8.18;;;7.60;99.90;;;;;;6155495;23;20342;-83
2023/01/13 02:46:23;;;;;;;41.63;9.13;;;7.50;99.90;;;;;;6155335;23;20018;-84
2023/01/13 02:48:53;;;;;;;43.40;10.18;;;7.40;99.90;;;;;;6153141;23;20423;-83
2023/01/13 02:51:22;;;;;;;36.53;8.38;;;7.80;99.90;;;;;;6156275;23;20017;-83
2023/01/13 02:53:58;;;;;;;42.63;9.63;;;7.40;99.90;;;;;;6153575;23;20096;-83
2023/01/13 02:56:26;;;;;;;45.42;8.50;;;7.60;99.90;;;;;;6153258;23;20044;-82
2023/01/13 02:58:55;;;;;;;39.95;9.07;;;7.80;99.90;;;;;;6153662;23;20025;-82
2023/01/13 03:01:21;;;;;;;52.30;9.30;;;8.00;99.90;;;;;;6155629;23;20010;-83
2023/01/13 03:03:48;;;;;;;40.88;8.48;;;8.10;99.90;;;;;;6153908;23;20076;-83
2023/01/13 03:06:17;;;;;;;40.92;8.27;;;7.70;99.90;;;;;;6153357;23;20140;-83
2023/01/13 03:08:51;;;;;;;38.58;9.18;;;7.40;99.90;;;;;;6153284;23;20013;-83
2023/01/13 03:11:18;;;;;;;36.72;7.75;;;7.40;99.90;;;;;;6155094;23;20490;-83
2023/01/13 03:14:02;;;;;;;45.38;8.70;;;7.30;99.90;;;;;;6154419;23;20013;-82
2023/01/13 03:16:43;;;;;;;;;;;7.40;99.90;;;;;;6154611;23;20024;-83
2023/01/13 03:19:28;;;;;;;47.13;7.90;;;7.40;99.90;;;;;;6153437;23;19964;-84
2023/01/13 03:22:05;;;;;;;44.75;8.35;;;7.40;99.90;;;;;;6128328;23;20128;-83
2023/01/13 03:24:36;;;;;;;45.65;9.52;;;7.30;99.90;;;;;;6154295;23;20056;-83
2023/01/13 03:27:27;;;;;;;41.40;9.13;;;7.30;99.90;;;;;;6155295;23;20009;-83
2023/01/13 03:30:12;;;;;;;41.65;8.40;;;7.90;99.90;;;;;;6155238;23;20013;-83
2023/01/13 03:32:46;;;;;;;36.10;7.55;;;7.30;99.90;;;;;;6157823;23;20010;-83
2023/01/13 03:35:17;;;;;;;42.92;9.10;;;7.30;99.90;;;;;;6158448;23;20010;-83
2023/01/13 03:37:48;;;;;;;41.03;8.98;;;7.50;99.90;;;;;;6153690;23;20109;-84
2023/01/13 03:40:19;;;;;;;44.42;8.93;;;7.20;99.90;;;;;;6154954;23;20010;-83
2023/01/13 03:45:37;;;;;;;42.63;7.93;;;7.40;99.90;;;;;;6152498;23;20415;-83
2023/01/13 03:48:12;;;;;;;42.42;8.15;;;7.20;99.90;;;;;;6153280;23;20064;-83
2023/01/13 03:50:44;;;;;;;46.13;9.02;;;7.10;99.90;;;;;;6154077;23;20010;-84
2023/01/13 03:53:15;;;;;;;46.92;8.68;;;7.10;99.90;;;;;;6154222;23;20498;-83
2023/01/13 03:55:47;;;;;;;36.97;7.95;;;7.50;99.90;;;;;;6153856;23;20017;-84
2023/01/13 03:58:14;;;;;;;41.67;8.88;;;7.10;99.90;;;;;;6128996;23;20104;-84
2023/01/13 04:00:47;;;;;;;41.83;8.98;;;7.00;99.90;;;;;;6153205;23;20028;-84
2023/01/13 04:03:31;;;;;;;44.00;9.18;;;7.10;99.90;;;;;;6128841;23;20290;-83
2023/01/13 04:06:14;;;;;;;48.05;9.05;;;7.00;99.90;;;;;;6128911;23;20504;-84
2023/01/13 04:08:49;;;;;;;44.17;8.52;;;7.00;99.90;;;;;;6154276;23;20360;-84
2023/01/13 04:11:28;;;;;;;49.22;8.80;;;7.20;99.90;;;;;;6155514;23;20045;-82
2023/01/13 04:13:55;;;;;;;56.00;9.00;;;7.10;99.90;;;;;;6128432;23;20018;-84
2023/01/13 04:16:21;;;;;;;44.47;9.13;;;7.10;99.90;;;;;;6155019;23;20021;-83
2023/01/13 04:18:49;;;;;;;39.85;8.40;;;7.10;99.90;;;;;;6159865;23;20079;-83
2023/01/13 04:21:14;;;;;;;47.15;8.45;;;7.10;99.90;;;;;;6132040;23;20017;-83
2023/01/13 04:23:40;;;;;;;47.10;9.38;;;7.10;99.90;;;;;;6153837;23;20404;-82
2023/01/13 04:26:06;;;;;;;45.22;8.32;;;7.30;99.90;;;;;;6155095;23;20333;-83
2023/01/13 04:28:33;;;;;;;54.80;9.27;;;7.10;99.90;;;;;;6155049;23;20012;-82
2023/01/13 04:30:59;;;;;;;50.25;9.18;;;7.10;99.90;;;;;;6153927;23;20024;-82
2023/01/13 04:33:25;;;;;;;48.55;9.02;;;7.10;99.90;;;;;;6153135;23;20437;-83
2023/01/13 04:35:51;;;;;;;53.08;10.23;;;7.60;99.90;;;;;;6155781;23;20013;-84
2023/01/13 04:38:19;;;;;;;54.53;9.68;;;7.10;99.90;;;;;;6154294;23;20376;-82
2023/01/13 04:40:45;;;;;;;49.58;8.77;;;7.10;99.90;;;;;;6153722;23;20041;-83
2023/01/13 04:43:11;;;;;;;47.30;8.80;;;7.20;99.90;;;;;;6153823;23;20075;-83
2023/01/13 04:45:36;;;;;;;49.33;8.88;;;7.10;99.90;;;;;;6154785;23;20480;-83
2023/01/13 04:48:02;;;;;;;47.50;8.77;;;7.10;99.90;;;;;;6155663;23;20009;-84
2023/01/13 04:50:28;;;;;;;48.50;8.85;;;7.10;99.90;;;;;;6156717;23;20040;-83
2023/01/13 04:52:54;;;;;;;45.67;9.13;;;7.40;99.90;;;;;;6154545;23;20013;-82
2023/01/13 04:55:22;;;;;;;36.65;8.20;;;7.10;99.90;;;;;;6154519;23;20029;-83
2023/01/13 04:57:48;;;;;;;46.50;9.65;;;7.10;99.90;;;;;;6156098;23;20025;-83
2023/01/13 05:00:19;;;;;;;42.53;9.45;;;7.10;99.90;;;;;;6155521;23;20022;-83
2023/01/13 05:02:45;;;;;;;41.60;8.38;;;7.30;99.90;;;;;;6154376;23;20096;-83
2023/01/13 05:05:11;;;;;;;43.08;9.23;;;7.30;99.90;;;;;;6156360;23;20014;-84
2023/01/13 05:07:36;;;;;;;38.65;8.70;;;7.40;99.90;;;;;;6157986;23;20018;-84
2023/01/13 05:10:02;;;;;;;42.70;9.55;;;8.00;99.90;;;;;;6155400;23;20429;-83
2023/01/13 05:17:58;;;;;;;50.20;9.25;;;7.80;99.90;;;;;;6157265;23;20017;-84
2023/01/13 05:20:24;;;;;;;53.90;10.45;;;7.60;99.90;;;;;;6154965;23;20021;-83
2023/01/13 05:25:40;;;;;;;43.00;8.80;;;7.60;99.90;;;;;;6155542;23;20298;-84
2023/01/13 05:28:06;;;;;;;44.63;8.57;;;7.60;99.90;;;;;;6153921;23;20033;-83
2023/01/13 05:30:36;;;;;;;37.83;8.18;;;7.60;99.90;;;;;;6153546;23;20065;-83
2023/01/13 05:33:03;;;;;;;45.38;8.50;;;7.60;99.90;;;;;;6154220;23;20013;-84
2023/01/13 05:35:28;;;;;;;52.17;9.20;;;7.60;99.90;;;;;;6129101;23;20441;-83
2023/01/13 05:37:55;;;;;;;44.90;8.82;;;7.70;99.90;;;;;;6155568;23;20014;-83
2023/01/13 05:43:23;;;;;;;44.17;8.30;;;8.00;99.90;;;;;;6157141;23;20385;-84
2023/01/13 05:45:54;;;;;;;41.78;9.38;;;7.70;99.90;;;;;;6130356;23;20014;-84
2023/01/13 05:48:25;;;;;;;40.05;7.80;;;7.70;99.90;;;;;;6157106;23;20021;-84
2023/01/13 05:50:52;;;;;;;43.42;8.52;;;7.80;99.90;;;;;;6155618;23;20068;-84
2023/01/13 05:53:19;;;;;;;43.90;9.80;;;7.80;99.90;;;;;;6133571;23;20017;-84
2023/01/13 05:55:44;;;;;;;46.40;8.63;;;7.80;99.90;;;;;;6156950;23;20035;-83
2023/01/13 05:58:13;;;;;;;35.20;7.22;;;8.10;99.90;;;;;;6156325;23;20465;-84
2023/01/13 06:00:38;;;;;;;38.15;8.00;;;7.80;99.90;;;;;;6155660;23;20017;-84
2023/01/13 06:03:04;;;;;;;36.13;7.65;;;7.90;99.90;;;;;;6155261;23;20010;-83
2023/01/13 06:05:31;;;;;;;34.85;8.18;;;7.70;99.90;;;;;;6153084;23;20045;-84
2023/01/13 06:07:58;;;;;;;39.47;8.02;;;7.70;99.90;;;;;;6154443;23;20440;-83
2023/01/13 06:10:28;;;;;;;37.33;7.78;;;7.70;99.90;;;;;;6153431;23;20017;-83
2023/01/13 06:12:54;;;;;;;41.63;7.47;;;7.70;99.90;;;;;;6154339;23;20016;-83
2023/01/13 06:15:20;;;;;;;38.42;7.43;;;8.00;99.90;;;;;;6153225;23;20048;-83
2023/01/13 06:17:46;;;;;;;44.58;8.13;;;7.80;99.90;;;;;;6153092;23;20052;-83
2023/01/13 06:20:13;;;;;;;36.03;7.40;;;8.00;99.90;;;;;;6154947;23;20089;-83
2023/01/13 06:22:42;;;;;;;41.10;8.07;;;8.20;99.90;;;;;;6153216;23;20020;-83
2023/01/13 06:25:42;;;;;;;39.63;7.75;;;8.00;99.90;;;;;;6153354;23;20024;-83
2023/01/13 06:28:07;;;;;;;28.95;6.43;;;7.70;99.90;;;;;;6153259;23;20014;-83
2023/01/13 06:30:41;;;;;;;35.03;7.25;;;7.70;99.90;;;;;;6154869;23;20087;-84
2023/01/13 06:33:12;;;;;;;32.20;7.55;;;8.10;99.90;;;;;;6153505;23;20017;-83
2023/01/13 06:35:40;;;;;;;37.25;7.15;;;7.80;99.90;;;;;;6155396;23;20009;-83
2023/01/13 06:38:12;;;;;;;31.75;6.45;;;7.80;99.90;;;;;;6153428;23;20075;-85
2023/01/13 06:40:39;;;;;;;30.20;6.10;;;8.20;99.90;;;;;;6129705;23;20024;-85
2023/01/13 06:43:14;;;;;;;33.10;6.97;;;7.80;99.90;;;;;;6157218;23;20088;-83
2023/01/13 06:45:52;;;;;;;30.05;6.18;;;7.80;99.90;;;;;;6155687;23;20313;-83
2023/01/13 06:48:21;;;;;;;30.50;6.35;;;8.10;99.90;;;;;;6128310;23;20041;-84
2023/01/13 06:50:47;;;;;;;34.80;6.35;;;7.90;99.90;;;;;;6153597;23;20151;-84
2023/01/13 06:53:12;;;;;;;23.80;5.25;;;7.80;99.90;;;;;;6151972;23;20428;-84
2023/01/13 06:55:38;;;;;;;30.30;6.38;;;7.90;99.90;;;;;;6151490;23;20344;-84
2023/01/13 06:58:04;;;;;;;30.85;5.80;;;7.90;99.90;;;;;;6151544;23;20076;-85
2023/01/13 07:00:31;;;;;;;35.38;6.32;;;7.90;99.90;;;;;;6151908;23;20017;-84
2023/01/13 07:03:14;;;;;;;25.65;5.03;;;8.20;99.90;;;;;;6151343;23;20096;-85
2023/01/13 07:05:40;;;;;;;31.45;6.25;;;7.80;99.90;;;;;;6151240;23;20013;-86
2023/01/13 07:08:07;;;;;;;28.23;5.93;;;7.80;99.90;;;;;;6152820;23;20010;-86
2023/01/13 07:10:33;;;;;;;31.00;5.25;;;8.30;99.90;;;;;;6151247;23;20441;-85
2023/01/13 07:15:56;;;;;;;27.95;5.65;;;7.80;99.90;;;;;;6151378;23;20021;-85
2023/01/13 07:18:22;;;;;;;31.70;5.40;;;7.90;99.90;;;;;;6153381;23;20014;-84
2023/01/13 07:20:52;;;;;;;30.17;6.38;;;7.70;99.90;;;;;;6152646;23;20013;-85
2023/01/13 07:23:18;;;;;;;27.08;5.72;;;7.60;99.90;;;;;;6153256;23;20128;-85
2023/01/13 07:25:44;;;;;;;25.20;5.75;;;7.60;99.90;;;;;;6151467;23;20057;-85
2023/01/13 07:28:09;;;;;;;30.08;6.93;;;7.70;99.90;;;;;;6153940;23;20017;-85
2023/01/13 07:30:35;;;;;;;29.17;6.10;;;7.50;99.90;;;;;;6155837;23;20079;-86
2023/01/13 07:33:00;;;;;;;29.60;6.53;;;7.50;99.90;;;;;;6151362;23;20045;-86
2023/01/13 07:35:26;;;;;;;30.55;6.55;;;7.50;99.90;;;;;;6151531;23;20516;-85
2023/01/13 07:37:51;;;;;;;30.60;6.63;;;7.50;99.90;;;;;;6151185;23;20081;-86
2023/01/13 07:40:17;;;;;;;36.33;6.30;;;7.50;99.90;;;;;;6153072;23;20049;-85
2023/01/13 07:45:29;;;;;;;29.55;6.43;;;7.30;99.90;;;;;;6121532;23;20018;-86
2023/01/13 07:47:54;;;;;;;26.77;5.78;;;7.30;99.90;;;;;;6126836;23;20041;-86
2023/01/13 07:50:22;;;;;;;24.95;6.22;;;7.30;99.90;;;;;;6150926;23;20460;-86
2023/01/13 07:52:49;;;;;;;27.58;5.35;;;7.30;99.90;;;;;;6125224;23;20049;-86
2023/01/13 07:55:14;;;;;;;23.95;5.40;;;7.30;99.90;;;;;;6149365;23;20013;-85
2023/01/13 07:57:40;;;;;;;30.58;6.15;;;7.30;99.90;;;;;;6149497;23;20456;-85
2023/01/13 08:00:06;;;;;;;34.55;6.22;;;7.30;99.90;;;;;;6149261;23;20021;-86
2023/01/13 08:02:32;;;;;;;33.03;5.57;;;7.30;99.90;;;;;;6151359;23;20009;-86
2023/01/13 08:04:57;;;;;;;34.83;6.40;;;7.30;99.90;;;;;;6124029;23;20061;-85
2023/01/13 08:07:23;;;;;;;39.08;6.43;;;7.30;99.90;;;;;;6152184;23;20429;-85
2023/01/13 08:09:51;;;;;;;35.03;6.20;;;7.30;99.90;;;;;;6126321;23;20338;-86
2023/01/13 08:15:00;;;;;;;35.22;6.97;;;7.60;99.90;;;;;;6151238;23;20025;-85
2023/01/13 08:17:28;;;;;;;34.08;7.30;;;7.50;99.90;;;;;;6157558;23;20072;-85
2023/01/13 08:19:53;;;;;;;34.95;7.15;;;7.30;99.90;;;;;;6152501;23;20017;-85
2023/01/13 08:22:19;;;;;;;29.42;7.20;;;7.30;99.90;;;;;;6128441;23;20018;-86
2023/01/13 08:24:44;;;;;;;35.20;7.68;;;7.30;99.90;;;;;;6152910;23;20156;-86
2023/01/13 08:27:10;;;;;;;23.23;5.95;;;7.40;99.90;;;;;;6153016;23;20020;-88
2023/01/13 08:29:36;;;;;;;29.17;6.43;;;7.40;99.90;;;;;;6155022;23;20440;-86
2023/01/13 08:32:01;;;;;;;31.63;7.85;;;7.40;99.90;;;;;;6155204;23;20013;-85
2023/01/13 08:34:27;;;;;;;34.40;7.75;;;7.40;99.90;;;;;;6152312;23;20045;-86
2023/01/13 08:36:53;;;;;;;28.10;7.07;;;7.80;99.90;;;;;;6154822;23;20072;-86
2023/01/13 08:39:18;;;;;;;35.42;6.43;;;8.10;99.90;;;;;;6152715;23;20314;-86
2023/01/13 08:41:57;;;;;;;29.80;6.30;;;7.50;99.90;;;;;;6154427;23;20085;-85
2023/01/13 08:44:29;;;;;;;32.95;7.78;;;7.50;99.90;;;;;;6154942;23;20018;-85
2023/01/13 08:46:55;;;;;;;33.88;6.13;;;7.50;99.90;;;;;;6152756;23;20013;-86
2023/01/13 08:49:21;;;;;;;31.80;6.68;;;7.70;99.90;;;;;;6154082;23;20025;-85
2023/01/13 08:51:47;;;;;;;35.10;6.90;;;7.60;99.90;;;;;;6153030;23;20132;-85
2023/01/13 08:54:14;;;;;;;37.15;6.57;;;7.60;99.90;;;;;;6152353;23;20097;-85
2023/01/13 08:56:41;;;;;;;36.33;7.15;;;7.80;99.90;;;;;;6152612;23;20092;-86
2023/01/13 08:59:12;;;;;;;40.28;7.38;;;7.70;99.90;;;;;;6152544;23;20028;-86
2023/01/13 09:01:39;;;;;;;33.55;6.35;;;7.70;99.90;;;;;;6128226;23;20437;-85
2023/01/13 09:04:06;;;;;;;31.70;7.45;;;7.70;99.90;;;;;;6152591;23;20090;-86
2023/01/13 09:06:31;;;;;;;31.55;6.75;;;8.40;99.90;;;;;;6156124;23;20010;-85
2023/01/13 09:08:58;;;;;;;39.67;7.93;;;8.20;99.90;;;;;;6155645;23;20006;-86
2023/01/13 09:14:22;;;;;;;32.72;6.53;;;7.70;99.90;;;;;;6152127;23;20026;-85
2023/01/13 09:16:48;;;;;;;37.65;8.30;;;8.20;99.90;;;;;;6152621;23;20088;-86
2023/01/13 09:19:14;;;;;;;44.47;8.27;;;7.60;99.90;;;;;;6152324;23;20041;-86
2023/01/13 09:21:39;;;;;;;38.50;7.95;;;7.60;99.90;;;;;;6152287;23;20349;-85
2023/01/13 09:24:06;;;;;;;36.25;7.95;;;7.60;99.90;;;;;;6152365;23;20014;-85
2023/01/13 09:26:31;;;;;;;43.40;7.93;;;7.60;99.90;;;;;;6152700;23;20013;-85
2023/01/13 09:28:57;;;;;;;48.67;8.55;;;7.70;99.90;;;;;;6153937;23;20005;-85
2023/01/13 09:31:23;;;;;;;33.42;6.88;;;7.70;99.90;;;;;;6153811;23;20014;-85
2023/01/13 09:36:32;;;;;;;42.53;8.25;;;7.90;99.90;;;;;;6153924;23;20441;-84
2023/01/13 09:38:58;;;;;;;37.05;7.38;;;7.50;99.90;;;;;;6152055;23;20014;-84
2023/01/13 09:44:30;;;;;;;40.58;7.38;;;7.80;99.90;;;;;;6153508;23;20017;-84
2023/01/13 09:47:02;;;;;;;34.10;7.55;;;7.40;99.90;;;;;;6151638;23;20013;-84
2023/01/13 09:49:37;;;;;;;37.83;7.03;;;7.40;99.90;;;;;;6152135;23;20010;-84
2023/01/13 09:52:13;;;;;;;41.92;8.30;;;7.40;99.90;;;;;;6152206;23;20013;-84
2023/01/13 09:55:16;;;;;;;42.60;7.43;;;7.50;99.90;;;;;;6152028;23;20014;-84
2023/01/13 09:57:42;;;;;;;51.17;7.53;;;7.40;99.90;;;;;;6148609;23;20336;-84
2023/01/13 10:00:27;;;;;;;43.17;7.82;;;7.40;99.90;;;;;;6152163;23;20099;-85
2023/01/13 10:03:12;;;;;;;45.83;8.65;;;7.40;99.90;;;;;;6152146;23;20017;-83
2023/01/13 10:05:55;;;;;;;38.35;8.00;;;7.40;99.90;;;;;;6155721;23;20084;-85
2023/01/13 10:08:29;;;;;;;39.33;8.75;;;7.40;99.90;;;;;;6152624;23;20048;-83
2023/01/13 10:13:13;;;;;;;40.38;7.63;;;7.50;99.90;;;;;;6152484;23;20017;-83
2023/01/13 10:14:22;;;;;;;43.63;7.90;;;7.60;99.90;;;;;;6154741;23;20017;-83
2023/01/13 10:17:03;;;;;;;41.50;8.65;;;7.60;99.90;;;;;;6130582;23;20029;-84
2023/01/13 10:19:51;;;;;;;38.25;6.78;;;7.60;99.90;;;;;;6152348;23;20456;-82
2023/01/13 10:22:44;;;;;;;34.97;7.38;;;7.50;99.90;;;;;;6152609;23;20109;-83
2023/01/13 10:25:28;;;;;;;31.30;6.13;;;7.50;99.90;;;;;;6152085;23;20236;-83
2023/01/13 10:28:00;;;;;;;32.85;6.57;;;7.40;99.90;;;;;;6154829;23;20132;-84
2023/01/13 10:30:31;;;;;;;32.38;5.90;;;7.40;99.90;;;;;;6152343;23;20083;-83
2023/01/13 10:33:08;;;;;;;35.45;6.88;;;7.40;99.90;;;;;;6152636;23;20022;-84
2023/01/13 10:36:01;;;;;;;31.95;5.93;;;7.40;99.90;;;;;;6153082;23;20024;-85
2023/01/13 10:38:28;;;;;;;25.90;6.38;;;7.50;99.90;;;;;;6154904;23;20013;-85
2023/01/13 10:40:57;;;;;;;35.67;6.63;;;7.50;99.90;;;;;;6155152;23;20012;-85
2023/01/13 10:43:23;;;;;;;31.70;6.57;;;7.50;99.90;;;;;;6154723;23;20052;-85
2023/01/13 10:45:55;;;;;;;32.08;7.30;;;7.90;99.90;;;;;;6154140;23;20047;-84
2023/01/13 10:48:21;;;;;;;32.97;6.65;;;7.90;99.90;;;;;;6153214;23;20017;-85
2023/01/13 10:50:47;;;;;;;37.70;6.68;;;7.80;99.90;;;;;;6128356;23;20056;-85
2023/01/13 10:53:24;;;;;;;36.90;6.90;;;7.90;99.90;;;;;;6152752;23;20017;-85
2023/01/13 10:56:01;;;;;;;29.60;6.32;;;7.70;99.90;;;;;;6155133;23;20014;-85
2023/01/13 10:58:27;;;;;;;39.55;6.93;;;7.70;99.90;;;;;;6152128;23;20021;-85
2023/01/13 11:01:06;;;;;;;47.35;7.47;;;7.70;99.90;;;;;;6152714;23;20020;-84
2023/01/13 11:03:40;;;;;;;37.38;6.97;;;7.70;99.90;;;;;;6152463;23;20337;-84
2023/01/13 11:06:07;;;;;;;30.25;6.40;;;7.70;99.90;;;;;;6152958;23;20341;-84
2023/01/13 11:08:44;;;;;;;42.35;7.55;;;7.70;99.90;;;;;;6152194;23;20021;-83
2023/01/13 11:11:34;;;;;;;30.90;6.40;;;7.80;99.90;;;;;;6152661;23;20018;-84
2023/01/13 11:16:54;;;;;;;37.38;6.95;;;8.10;99.90;;;;;;6152020;23;20116;-84
2023/01/13 11:19:23;;;;;;;37.08;6.93;;;7.90;99.90;;;;;;6152292;23;20021;-85
2023/01/13 11:22:02;;;;;;;32.38;6.40;;;7.80;99.90;;;;;;6152341;23;20021;-85
2023/01/13 11:24:43;;;;;;;35.08;6.47;;;7.90;99.90;;;;;;6128011;23;20021;-85
2023/01/13 11:27:21;;;;;;;32.20;6.10;;;7.90;99.90;;;;;;6156083;23;20076;-84
2023/01/13 11:30:19;;;;;;;29.45;5.57;;;7.90;99.90;;;;;;6155392;23;20144;-85
2023/01/13 11:32:53;;;;;;;34.38;6.97;;;7.90;99.90;;;;;;6152643;23;20009;-84
2023/01/13 11:35:20;;;;;;;28.67;5.78;;;7.90;99.90;;;;;;6153090;23;20088;-85
2023/01/13 11:37:56;;;;;;;33.22;6.20;;;7.90;99.90;;;;;;6152582;23;20076;-85
2023/01/13 11:40:37;;;;;;;30.38;6.47;;;7.90;99.90;;;;;;6152303;23;20049;-85
2023/01/13 11:43:34;;;;;;;21.52;5.60;;;7.90;99.90;;;;;;6127839;23;20009;-85
2023/01/13 11:46:00;;;;;;;28.27;5.53;;;8.20;99.90;;;;;;6128146;23;20068;-85
2023/01/13 11:48:31;;;;;;;26.85;5.78;;;7.90;99.90;;;;;;6153684;23;20445;-85
2023/01/13 11:51:12;;;;;;;28.80;6.22;;;7.90;99.90;;;;;;6155023;23;20009;-84
2023/01/13 11:53:58;;;;;;;32.05;5.68;;;8.10;99.90;;;;;;6154174;23;20017;-85
2023/01/13 11:56:54;;;;;;;31.38;5.30;;;8.00;99.90;;;;;;6154001;23;20076;-85
2023/01/13 11:59:54;;;;;;;28.10;5.25;;;8.00;99.90;;;;;;6155801;23;20014;-86
2023/01/13 12:02:25;;;;;;;26.70;5.47;;;8.10;99.90;;;;;;6127310;23;20018;-84
2023/01/13 12:05:22;;;;;;;26.48;4.47;;;8.10;99.90;;;;;;6151610;23;20024;-84
2023/01/13 12:08:17;;;;;;;27.65;5.70;;;8.20;99.90;;;;;;6153056;23;20080;-84
2023/01/13 12:11:08;;;;;;;23.75;5.22;;;8.20;99.90;;;;;;6151205;23;20444;-85
2023/01/13 12:13:56;;;;;;;26.42;5.38;;;8.20;99.90;;;;;;6152958;23;20017;-84
2023/01/13 12:16:30;;;;;;;19.83;5.30;;;8.10;99.90;;;;;;6152244;23;20024;-84
2023/01/13 12:19:03;;;;;;;27.20;6.38;;;8.10;99.90;;;;;;6151873;23;20084;-85
2023/01/13 12:21:32;;;;;;;28.25;6.30;;;8.10;99.90;;;;;;6152010;23;20073;-83
2023/01/13 12:24:19;;;;;;;21.80;5.20;;;8.20;99.90;;;;;;6151755;23;20073;-84
2023/01/13 12:27:12;;;;;;;21.60;4.75;;;8.20;99.90;;;;;;6127196;23;20056;-84
2023/01/13 12:29:38;;;;;;;27.67;5.90;;;8.20;99.90;;;;;;6151948;23;20507;-84
2023/01/13 12:32:10;;;;;;;21.73;4.78;;;8.30;99.90;;;;;;6152000;23;20017;-83
2023/01/13 12:34:38;;;;;;;27.23;4.88;;;8.30;99.90;;;;;;6126794;23;20020;-83
2023/01/13 12:37:31;;;;;;;25.75;5.55;;;8.30;99.90;;;;;;6154137;23;20016;-84
2023/01/13 12:40:14;;;;;;;26.73;4.53;;;8.20;99.90;;;;;;6151285;23;20022;-83
2023/01/13 12:45:33;;;;;;;24.80;5.68;;;8.30;99.90;;;;;;6151839;23;20084;-84
2023/01/13 12:47:59;;;;;;;21.77;5.03;;;8.80;99.90;;;;;;6153964;23;20338;-84
2023/01/13 12:50:25;;;;;;;23.23;5.82;;;8.30;99.90;;;;;;6152086;23;20017;-85
2023/01/13 12:52:53;;;;;;;25.65;4.80;;;8.10;99.90;;;;;;6153602;23;20013;-84
2023/01/13 12:55:25;;;;;;;21.90;4.93;;;8.30;99.90;;;;;;6151544;23;20544;-85
2023/01/13 12:58:05;;;;;;;18.15;4.53;;;8.20;99.90;;;;;;6153858;23;20014;-84
2023/01/13 13:00:37;;;;;;;21.63;4.95;;;8.40;99.90;;;;;;6154018;23;20010;-83
2023/01/13 13:03:12;;;;;;;20.02;4.45;;;8.40;99.90;;;;;;6152464;23;20092;-85
2023/01/13 13:05:54;;;;;;;20.38;4.40;;;8.80;99.90;;;;;;6129528;23;20010;-84
2023/01/13 13:08:38;;;;;;;20.10;4.75;;;8.50;99.90;;;;;;6156065;23;20009;-84
2023/01/13 13:14:05;;;;;;;17.38;4.03;;;8.50;99.90;;;;;;6155887;23;20032;-84
2023/01/13 13:16:35;;;;;;;21.25;4.88;;;8.50;99.90;;;;;;6154180;23;20386;-83
2023/01/13 13:19:20;;;;;;;24.02;4.80;;;8.50;99.90;;;;;;6154986;23;20380;-84
2023/01/13 13:22:10;;;;;;;20.73;4.70;;;8.50;99.90;;;;;;6153946;23;20013;-84
2023/01/13 13:24:36;;;;;;;17.55;3.58;;;8.50;99.90;;;;;;6152746;23;20599;-84
2023/01/13 13:27:35;;;;;;;17.80;4.18;;;8.50;99.90;;;;;;6154183;23;20010;-85
2023/01/13 13:30:17;;;;;;;21.65;4.80;;;8.40;99.90;;;;;;6154176;23;20020;-84
2023/01/13 13:33:01;;;;;;;21.38;5.00;;;8.40;99.90;;;;;;6152589;23;20017;-85
2023/01/13 13:35:42;;;;;;;24.02;4.47;;;8.40;99.90;;;;;;6152488;23;20025;-85
2023/01/13 13:47:08;;;;;;;14.30;3.35;;;8.60;99.90;;;;;;6152180;23;20021;-85
2023/01/13 13:49:49;;;;;;;18.75;4.38;;;8.70;99.90;;;;;;6153888;23;20012;-85
2023/01/13 13:52:18;;;;;;;17.90;4.15;;;8.70;99.90;;;;;;6151719;23;20027;-84
2023/01/13 13:54:47;;;;;;;20.90;3.92;;;9.20;99.90;;;;;;6152142;23;20025;-85
2023/01/13 13:57:18;;;;;;;15.98;3.92;;;8.90;99.90;;;;;;6152095;23;20013;-85
2023/01/13 13:59:44;;;;;;;16.42;3.90;;;9.00;99.90;;;;;;6152028;23;20408;-85
2023/01/13 14:02:25;;;;;;;18.45;4.40;;;8.70;99.90;;;;;;6151983;23;20048;-85
2023/01/13 14:05:06;;;;;;;16.45;3.85;;;8.70;99.90;;;;;;6151842;23;20012;-85
2023/01/13 14:07:42;;;;;;;17.27;4.22;;;9.20;99.90;;;;;;6151062;23;20020;-85
2023/01/13 14:10:26;;;;;;;21.63;3.67;;;8.90;99.90;;;;;;6153865;23;20009;-86
2023/01/13 14:12:52;;;;;;;14.38;3.50;;;9.00;99.90;;;;;;6152007;23;20497;-85